createdAt,value
2023-03-23T15:58:21.011Z,23.89
2023-03-23T16:00:49.218Z,23.74
2023-03-23T16:03:25.473Z,23.64
2023-03-23T16:05:52.400Z,23.49
2023-03-23T16:08:19.168Z,23.24
2023-03-23T16:10:46.180Z,23.23
2023-03-23T16:13:12.925Z,23.07
2023-03-23T16:15:39.768Z,22.95
2023-03-23T16:18:06.703Z,22.80
2023-03-23T16:20:33.600Z,22.56
2023-03-23T16:23:01.258Z,22.46
2023-03-23T16:25:27.990Z,22.26
2023-03-23T16:27:54.724Z,22.09
2023-03-23T16:30:26.444Z,22.00
2023-03-23T16:32:55.493Z,21.76
2023-03-23T16:35:24.073Z,21.64
2023-03-23T16:38:08.309Z,21.48
2023-03-23T16:40:39.015Z,21.31
2023-03-23T16:43:08.763Z,21.13
2023-03-23T16:45:37.997Z,20.97
2023-03-23T16:48:06.226Z,20.79
2023-03-23T16:50:33.734Z,20.58
2023-03-23T16:53:00.820Z,20.44
2023-03-23T16:55:28.078Z,20.38
2023-03-23T16:58:05.361Z,20.16
2023-03-23T17:00:40.821Z,20.00
2023-03-23T17:03:08.147Z,19.77
2023-03-23T17:05:36.749Z,19.64
2023-03-23T17:08:04.121Z,19.49
2023-03-23T17:10:34.533Z,19.31
2023-03-23T17:13:01.883Z,19.18
2023-03-23T17:15:42.120Z,19.09
2023-03-23T17:18:09.983Z,18.90
2023-03-23T17:20:37.020Z,18.78
2023-03-23T17:23:04.586Z,18.63
2023-03-23T17:25:32.109Z,18.48
2023-03-23T17:28:05.925Z,18.42
2023-03-23T17:30:34.490Z,18.31
2023-03-23T17:33:01.209Z,18.20
2023-03-23T17:35:27.967Z,18.09
2023-03-23T17:37:54.633Z,17.99
2023-03-23T17:40:21.481Z,17.93
2023-03-23T17:42:51.347Z,17.81
2023-03-23T17:45:18.255Z,17.73
2023-03-23T17:47:44.998Z,17.63
2023-03-23T17:50:14.819Z,17.56
2023-03-23T17:52:43.433Z,17.49
2023-03-23T17:55:10.638Z,17.40
2023-03-23T17:57:37.317Z,17.32
2023-03-23T18:00:07.992Z,17.24
2023-03-23T18:02:38.419Z,17.16
2023-03-23T18:05:06.626Z,17.08
2023-03-23T18:07:33.338Z,16.95
2023-03-23T18:10:00.784Z,16.88
2023-03-23T18:12:27.660Z,16.73
2023-03-23T18:14:58.402Z,16.55
2023-03-23T18:17:25.896Z,16.51
2023-03-23T18:19:52.641Z,16.36
2023-03-23T18:22:19.489Z,16.28
2023-03-23T18:24:46.810Z,16.26
2023-03-23T18:27:13.669Z,16.20
2023-03-23T18:29:40.451Z,16.12
2023-03-23T18:32:08.219Z,16.05
2023-03-23T18:34:36.445Z,16.00
2023-03-23T18:37:03.992Z,15.93
2023-03-23T18:39:34.078Z,15.82
2023-03-23T18:42:01.430Z,15.76
2023-03-23T18:44:28.251Z,15.63
2023-03-23T18:46:54.954Z,15.57
2023-03-23T18:49:21.909Z,15.47
2023-03-23T18:51:50.876Z,15.32
2023-03-23T18:54:17.855Z,15.09
2023-03-23T18:56:44.746Z,14.98
2023-03-23T18:59:11.575Z,14.84
2023-03-23T19:01:39.162Z,14.75
2023-03-23T19:04:06.812Z,14.67
2023-03-23T19:06:35.226Z,14.50
2023-03-23T19:09:02.356Z,14.43
2023-03-23T19:11:29.373Z,14.22
2023-03-23T19:14:02.065Z,14.15
2023-03-23T19:16:31.282Z,14.06
2023-03-23T19:18:58.226Z,13.97
2023-03-23T19:21:25.890Z,13.89
2023-03-23T19:23:54.799Z,13.70
2023-03-23T19:26:36.157Z,13.60
2023-03-23T19:29:26.083Z,13.51
2023-03-23T19:31:55.111Z,13.40
2023-03-23T19:34:22.231Z,13.32
2023-03-23T19:36:55.192Z,13.25
2023-03-23T19:39:30.400Z,13.18
2023-03-23T19:41:57.160Z,13.13
2023-03-23T19:44:23.981Z,12.96
2023-03-23T19:46:50.790Z,12.91
2023-03-23T19:49:17.880Z,12.83
2023-03-23T19:51:45.036Z,12.83
2023-03-23T19:54:13.288Z,12.80
2023-03-23T19:56:40.470Z,12.73
2023-03-23T19:59:10.611Z,12.76
2023-03-23T20:01:37.787Z,12.72
2023-03-23T20:04:05.555Z,12.75
2023-03-23T20:06:33.632Z,12.75
2023-03-23T20:09:01.261Z,12.75
2023-03-23T20:11:28.676Z,12.75
2023-03-23T20:13:55.553Z,12.78
2023-03-23T20:16:22.890Z,12.78
2023-03-23T20:18:50.204Z,12.80
2023-03-23T20:21:20.430Z,12.81
2023-03-23T20:23:47.970Z,12.79
2023-03-23T20:26:24.479Z,12.79
2023-03-23T20:28:52.311Z,12.78
2023-03-23T20:31:24.294Z,12.78
2023-03-23T20:34:00.228Z,12.82
2023-03-23T20:36:36.863Z,12.81
2023-03-23T20:39:10.853Z,12.88
2023-03-23T20:41:41.617Z,12.93
2023-03-23T20:44:14.151Z,13.00
2023-03-23T20:46:48.610Z,13.02
2023-03-23T20:49:16.420Z,13.08
2023-03-23T20:51:43.760Z,13.14
2023-03-23T20:54:14.061Z,13.18
2023-03-23T20:56:42.537Z,13.33
2023-03-23T20:59:09.966Z,13.40
2023-03-23T21:01:37.106Z,13.45
2023-03-23T21:04:03.832Z,13.49
2023-03-23T21:06:31.223Z,13.52
2023-03-23T21:08:58.268Z,13.58
2023-03-23T21:11:26.767Z,13.62
2023-03-23T21:13:55.083Z,13.64
2023-03-23T21:16:24.361Z,13.60
2023-03-23T21:18:51.287Z,13.54
2023-03-23T21:21:18.572Z,13.58
2023-03-23T21:23:52.997Z,13.61
2023-03-23T21:26:22.756Z,13.62
2023-03-23T21:28:51.069Z,13.61
2023-03-23T21:31:18.345Z,13.60
2023-03-23T21:33:45.152Z,13.56
2023-03-23T21:36:11.969Z,13.63
2023-03-23T21:38:41.891Z,13.60
2023-03-23T21:41:11.464Z,13.56
2023-03-23T21:43:39.764Z,13.57
2023-03-23T21:46:09.060Z,13.58
2023-03-23T21:48:38.820Z,13.56
2023-03-23T21:51:11.993Z,13.57
2023-03-23T21:53:39.150Z,13.50
2023-03-23T21:56:07.374Z,13.50
2023-03-23T21:58:34.253Z,13.51
2023-03-23T22:01:02.179Z,13.52
2023-03-23T22:03:33.016Z,13.52
2023-03-23T22:06:06.774Z,13.48
2023-03-23T22:08:33.734Z,13.53
2023-03-23T22:11:02.443Z,13.47
2023-03-23T22:13:31.263Z,13.50
2023-03-23T22:15:59.379Z,13.51
2023-03-23T22:18:26.128Z,13.53
2023-03-23T22:20:53.331Z,13.50
2023-03-23T22:23:20.282Z,13.52
2023-03-23T22:25:47.393Z,13.55
2023-03-23T22:28:14.131Z,13.52
2023-03-23T22:30:40.826Z,13.52
2023-03-23T22:33:08.170Z,13.50
2023-03-23T22:35:35.060Z,13.53
2023-03-23T22:38:03.238Z,13.48
2023-03-23T22:40:33.085Z,13.50
2023-03-23T22:42:59.872Z,13.50
2023-03-23T22:45:27.903Z,13.47
2023-03-23T22:47:54.817Z,13.48
2023-03-23T22:50:24.292Z,13.44
2023-03-23T22:52:51.313Z,13.38
2023-03-23T22:55:18.134Z,13.38
2023-03-23T22:57:44.939Z,13.38
2023-03-23T23:00:14.950Z,13.38
2023-03-23T23:02:43.005Z,13.32
2023-03-23T23:05:10.911Z,13.32
2023-03-23T23:07:38.011Z,13.35
2023-03-23T23:10:05.412Z,13.30
2023-03-23T23:12:35.260Z,13.28
2023-03-23T23:15:07.115Z,13.26
2023-03-23T23:17:34.860Z,13.30
2023-03-23T23:20:05.805Z,13.25
2023-03-23T23:22:33.793Z,13.34
2023-03-23T23:25:00.803Z,13.38
2023-03-23T23:27:27.639Z,13.34
2023-03-23T23:29:54.411Z,13.34
2023-03-23T23:32:21.461Z,13.32
2023-03-23T23:34:48.560Z,13.38
2023-03-23T23:37:15.570Z,13.39
2023-03-23T23:39:42.652Z,13.33
2023-03-23T23:42:09.813Z,13.37
2023-03-23T23:44:36.864Z,13.40
2023-03-23T23:47:04.100Z,13.33
2023-03-23T23:49:32.795Z,13.36
2023-03-23T23:51:59.547Z,13.33
2023-03-23T23:54:30.404Z,13.37
2023-03-23T23:56:58.967Z,13.36
2023-03-23T23:59:26.512Z,13.37
